Time;durP1;ratioP1;P1;durP2;ratioP2;P2;SDS_P1;SDS_P2;PMS_P1;PMS_P2;Temp;Humidity;BMP_temperature;BMP_pressure;BME280_temperature;BME280_humidity;BME280_pressure;Samples;Min_cycle;Max_cycle;Signal;HPM_P1;HPM_P2
2022/10/23 00:05:05;;;;;;;10.27;6.50;;;;;14.50;98960.00;;;;16636618;28;20251;-47
2022/10/23 00:13:09;;;;;;;9.60;6.27;;;;;14.40;98944.00;;;;16639476;28;20858;-49
2022/10/23 00:21:13;;;;;;;10.80;5.33;;;;;13.70;98943.00;;;;16603014;22;20233;-49
2022/10/23 00:29:16;;;;;;;7.47;5.03;;;;;13.60;98939.00;;;;16571467;28;20233;-49
2022/10/23 00:37:19;;;;;;;6.10;5.57;;;;;14.00;98960.00;;;;16549280;28;20230;-49
2022/10/23 00:45:25;;;;;;;9.80;6.33;;;;;14.20;98953.00;;;;16538650;28;20285;-48
2022/10/23 00:53:27;;;;;;;7.20;6.50;;;;;14.50;98946.00;;;;16542851;28;20238;-49
2022/10/23 01:01:31;;;;;;;8.10;5.83;;;;;14.10;98937.00;;;;16546404;28;20714;-49
2022/10/23 01:09:38;;;;;;;9.33;5.53;;;;;13.90;98935.00;;;;16536508;28;20289;-49
2022/10/23 01:17:48;;;;;;;8.93;6.80;;;;;13.70;98941.00;;;;16542804;28;20802;-49
2022/10/23 01:26:02;;;;;;;8.43;5.60;;;;;13.50;98934.00;;;;16553577;28;20261;-48
2022/10/23 01:34:10;;;;;;;6.80;6.17;;;;;13.60;98922.00;;;;16546714;28;20224;-49
2022/10/23 01:42:19;;;;;;;11.57;7.93;;;;;13.30;98914.00;;;;16552556;28;20229;-49
2022/10/23 01:50:24;;;;;;;6.70;6.10;;;;;13.40;98896.00;;;;16565370;28;20655;-48
2022/10/23 01:58:36;;;;;;;7.40;6.00;;;;;13.10;98908.00;;;;16558537;28;20234;-48
2022/10/23 02:06:40;;;;;;;7.63;5.93;;;;;13.40;98894.00;;;;16549573;28;20224;-49
2022/10/23 02:14:49;;;;;;;12.70;5.67;;;;;14.10;98881.00;;;;16556822;28;20227;-47
2022/10/23 02:22:58;;;;;;;8.70;5.83;;;;;14.00;98874.00;;;;16553780;28;20726;-48
2022/10/23 02:31:03;;;;;;;6.67;5.97;;;;;13.40;98880.00;;;;16560290;28;20231;-49
2022/10/23 02:39:07;;;;;;;8.13;5.97;;;;;13.90;98863.00;;;;16546750;28;20278;-49
2022/10/23 02:47:20;;;;;;;11.40;5.60;;;;;13.60;98866.00;;;;16554221;28;20247;-49
2022/10/23 02:55:31;;;;;;;9.27;5.87;;;;;13.50;98833.00;;;;16545028;28;20302;-49
2022/10/23 03:03:38;;;;;;;8.60;6.07;;;;;13.20;98837.00;;;;16556339;28;20694;-48
2022/10/23 03:11:42;;;;;;;6.87;6.20;;;;;13.30;98833.00;;;;16535346;28;20214;-48
2022/10/23 03:19:45;;;;;;;6.47;5.80;;;;;13.20;98839.00;;;;16550939;28;20228;-49
2022/10/23 03:27:50;;;;;;;6.33;5.73;;;;;12.80;98845.00;;;;16559695;28;20212;-49
2022/10/23 03:35:53;;;;;;;6.37;5.67;;;;;13.50;98826.00;;;;16552911;28;20228;-49
2022/10/23 03:43:57;;;;;;;15.73;6.87;;;;;13.40;98826.00;;;;16540811;28;20196;-49
2022/10/23 03:52:00;;;;;;;9.30;7.00;;;;;13.20;98826.00;;;;16551277;28;20792;-49
2022/10/23 04:00:06;;;;;;;8.10;7.30;;;;;13.60;98809.00;;;;16555918;28;20395;-49
2022/10/23 04:08:18;;;;;;;7.83;7.13;;;;;14.00;98812.00;;;;16536508;28;20316;-48
2022/10/23 04:16:25;;;;;;;7.10;6.40;;;;;14.10;98813.00;;;;16548769;28;20242;-49
2022/10/23 04:24:27;;;;;;;7.37;6.43;;;;;14.30;98810.00;;;;16547736;28;20214;-49
2022/10/23 04:32:31;;;;;;;7.20;6.60;;;;;14.40;98813.00;;;;16550125;28;20270;-49
2022/10/23 04:40:34;;;;;;;6.40;5.80;;;;;14.50;98819.00;;;;16536360;28;20227;-49
2022/10/23 04:48:38;;;;;;;8.67;6.87;;;;;14.60;98804.00;;;;16532497;28;20219;-49
2022/10/23 04:57:02;;;;;;;12.93;8.80;;;;;14.40;98810.00;;;;16557654;28;20257;-49
2022/10/23 05:05:18;;;;;;;6.20;5.60;;;;;14.80;98799.00;;;;16519546;28;20214;-48
2022/10/23 05:13:41;;;;;;;7.53;6.20;;;;;14.70;98800.00;;;;16533887;28;20231;-49
2022/10/23 05:21:46;;;;;;;9.60;5.63;;;;;14.40;98792.00;;;;16531711;28;20226;-49
2022/10/23 05:29:49;;;;;;;7.83;6.07;;;;;14.30;98787.00;;;;16570462;28;20223;-49
2022/10/23 05:37:59;;;;;;;8.03;5.43;;;;;14.20;98784.00;;;;16562608;28;20222;-49
2022/10/23 05:46:05;;;;;;;9.43;6.03;;;;;14.30;98785.00;;;;16565558;28;20806;-49
2022/10/23 05:54:09;;;;;;;5.90;5.40;;;;;14.30;98768.00;;;;16534621;28;20566;-49
2022/10/23 06:02:30;;;;;;;6.50;5.70;;;;;14.20;98763.00;;;;16572601;28;20737;-49
2022/10/23 06:10:41;;;;;;;5.93;5.43;;;;;14.20;98762.00;;;;16550908;28;20226;-49
2022/10/23 06:18:46;;;;;;;6.50;5.30;;;;;14.20;98761.00;;;;16545252;28;20230;-49
2022/10/23 06:26:52;;;;;;;6.90;4.90;;;;;13.90;98757.00;;;;16548531;28;20710;-48
2022/10/23 06:35:10;;;;;;;6.43;5.80;;;;;13.90;98759.00;;;;16536110;28;20217;-49
2022/10/23 06:43:14;;;;;;;12.60;6.17;;;;;14.00;98764.00;;;;16568602;28;20223;-48
2022/10/23 06:51:40;;;;;;;7.87;5.93;;;;;14.10;98756.00;;;;16569391;28;20219;-49
2022/10/23 06:59:49;;;;;;;6.80;6.17;;;;;14.10;98752.00;;;;16542604;28;20310;-48
2022/10/23 07:07:52;;;;;;;9.43;5.43;;;;;14.10;98751.00;;;;16537015;28;20235;-48
2022/10/23 07:16:10;;;;;;;5.70;5.07;;;;;14.20;98761.00;;;;16564094;28;20630;-48
2022/10/23 07:24:13;;;;;;;7.43;6.03;;;;;14.30;98752.00;;;;16550652;28;20215;-48
2022/10/23 07:32:17;;;;;;;11.73;8.30;;;;;14.10;98737.00;;;;16572718;28;20267;-48
2022/10/23 07:40:38;;;;;;;8.90;6.43;;;;;14.20;98752.00;;;;16532699;28;20598;-48
2022/10/23 07:48:45;;;;;;;8.40;5.80;;;;;14.80;98759.00;;;;16538868;28;20223;-48
2022/10/23 07:56:48;;;;;;;8.50;5.93;;;;;14.90;98757.00;;;;16542751;28;20231;-48
2022/10/23 08:04:56;;;;;;;10.47;6.87;;;;;15.20;98742.00;;;;16538453;28;20226;-48
2022/10/23 08:13:10;;;;;;;7.77;5.70;;;;;15.20;98740.00;;;;16544221;28;20238;-48
2022/10/23 08:21:34;;;;;;;6.33;5.50;;;;;15.40;98730.00;;;;16533820;28;20227;-48
2022/10/23 08:29:38;;;;;;;9.43;5.73;;;;;15.70;98719.00;;;;16542550;28;20583;-48
2022/10/23 08:37:42;;;;;;;8.77;5.20;;;;;16.20;98708.00;;;;16535591;28;20227;-48
2022/10/23 08:45:48;;;;;;;8.97;5.43;;;;;16.50;98692.00;;;;16548448;28;20204;-47
2022/10/23 08:54:17;;;;;;;6.23;4.70;;;;;16.70;98677.00;;;;16527598;28;20227;-48
2022/10/23 09:02:24;;;;;;;4.20;3.90;;;;;17.10;98683.00;;;;16543182;28;20231;-48
2022/10/23 09:10:41;;;;;;;5.70;3.97;;;;;17.90;98665.00;;;;16563021;28;20219;-48
2022/10/23 09:18:46;;;;;;;6.00;4.27;;;;;18.90;98665.00;;;;16525134;28;20228;-48
2022/10/23 09:26:51;;;;;;;5.93;4.30;;;;;19.40;98664.00;;;;16524693;28;20228;-48
2022/10/23 09:34:55;;;;;;;5.60;3.90;;;;;19.10;98654.00;;;;16519432;28;20223;-48
2022/10/23 09:43:02;;;;;;;3.97;3.57;;;;;19.90;98641.00;;;;16519410;28;20359;-48
2022/10/23 09:51:16;;;;;;;5.20;3.53;;;;;21.50;98633.00;;;;16526461;28;20224;-51
2022/10/23 09:59:24;;;;;;;3.20;2.83;;;;;22.60;98619.00;;;;16548449;28;20734;-51
2022/10/23 10:07:29;;;;;;;3.30;2.67;;;;;22.90;98626.00;;;;16540510;28;20215;-51
2022/10/23 10:15:36;;;;;;;4.97;3.20;;;;;22.50;98625.00;;;;16544273;28;20199;-52
2022/10/23 10:23:44;;;;;;;4.10;3.60;;;;;22.90;98624.00;;;;16537428;28;20246;-50
2022/10/23 10:32:04;;;;;;;6.67;3.23;;;;;23.90;98608.00;;;;16572120;28;20294;-53
2022/10/23 10:40:11;;;;;;;14.80;8.33;;;;;23.80;98608.00;;;;16571688;28;20734;-53
2022/10/23 10:48:34;;;;;;;14.57;7.77;;;;;24.20;98567.00;;;;16570374;28;20298;-52
2022/10/23 10:57:01;;;;;;;13.83;7.97;;;;;23.60;98582.00;;;;16556142;28;20322;-51
2022/10/23 11:05:15;;;;;;;10.73;5.77;;;;;23.80;98589.00;;;;16562924;28;20274;-50
2022/10/23 11:13:25;;;;;;;13.80;7.00;;;;;24.00;98577.00;;;;16548655;28;20219;-51
2022/10/23 11:21:34;;;;;;;5.23;3.70;;;;;24.30;98551.00;;;;16562343;28;20242;-52
2022/10/23 11:30:09;;;;;;;6.17;3.93;;;;;23.90;98548.00;;;;16566802;28;20294;-52
2022/10/23 11:38:18;;;;;;;5.20;3.40;;;;;23.50;98534.00;;;;16542589;28;20233;-52
2022/10/23 11:46:31;;;;;;;4.10;2.23;;;;;23.40;98527.00;;;;16559021;28;20306;-49
2022/10/23 11:54:35;;;;;;;4.17;2.33;;;;;23.60;98519.00;;;;16547033;28;20408;-48
2022/10/23 12:02:39;;;;;;;2.47;2.27;;;;;23.40;98509.00;;;;16562650;28;20282;-48
2022/10/23 12:10:49;;;;;;;3.13;2.23;;;;;23.40;98496.00;;;;16559885;28;20215;-48
2022/10/23 12:18:54;;;;;;;2.90;1.90;;;;;24.10;98477.00;;;;16558835;28;20223;-48
2022/10/23 12:27:15;;;;;;;2.93;2.00;;;;;24.40;98482.00;;;;16563591;28;20279;-48
2022/10/23 12:35:27;;;;;;;3.27;2.10;;;;;24.10;98468.00;;;;16620659;22;20235;-49
2022/10/23 12:43:33;;;;;;;3.33;2.13;;;;;24.80;98449.00;;;;16631672;28;20281;-50
2022/10/23 12:51:36;;;;;;;1.83;1.73;;;;;25.10;98444.00;;;;16620186;28;20237;-50
2022/10/23 12:59:41;;;;;;;3.23;2.30;;;;;26.50;98438.00;;;;16612835;28;20373;-50
2022/10/23 13:07:45;;;;;;;3.37;2.37;;;;;27.70;98409.00;;;;16621332;28;20226;-50
2022/10/23 13:15:51;;;;;;;3.13;2.10;;;;;29.50;98386.00;;;;16623217;28;20253;-50
2022/10/23 13:23:53;;;;;;;3.40;2.23;;;;;28.90;98403.00;;;;16628942;28;20250;-50
2022/10/23 13:31:57;;;;;;;2.57;2.00;;;;;28.40;98409.00;;;;16600749;28;20339;-48
2022/10/23 13:40:00;;;;;;;3.47;2.20;;;;;27.40;98407.00;;;;16608454;28;20231;-48
2022/10/23 13:48:11;;;;;;;5.63;2.10;;;;;27.20;98398.00;;;;16620371;28;20285;-48
2022/10/23 13:56:15;;;;;;;2.43;1.83;;;;;26.50;98397.00;;;;16629304;28;20828;-48
2022/10/23 14:04:19;;;;;;;4.83;4.40;;;;;26.10;98395.00;;;;16620704;28;20717;-48
2022/10/23 14:12:22;;;;;;;5.57;4.13;;;;;24.70;98412.00;;;;16632760;28;20345;-49
2022/10/23 14:20:26;;;;;;;8.00;3.57;;;;;23.40;98410.00;;;;16613138;28;20361;-50
2022/10/23 14:28:28;;;;;;;6.80;3.60;;;;;22.50;98399.00;;;;16617389;28;20213;-49
2022/10/23 14:36:32;;;;;;;6.57;4.27;;;;;22.50;98407.00;;;;16603157;28;20736;-50
2022/10/23 14:44:34;;;;;;;7.23;4.27;;;;;21.90;98402.00;;;;16622736;28;20276;-49
2022/10/23 14:52:38;;;;;;;6.70;5.83;;;;;21.40;98401.00;;;;16624850;28;20222;-49
2022/10/23 15:00:40;;;;;;;8.70;6.40;;;;;21.70;98382.00;;;;16614753;28;20232;-50
2022/10/23 15:08:44;;;;;;;6.40;3.60;;;;;21.30;98379.00;;;;16622502;28;20203;-49
2022/10/23 15:16:47;;;;;;;6.60;4.67;;;;;21.60;98360.00;;;;16620033;28;20230;-49
2022/10/23 15:24:51;;;;;;;13.97;9.13;;;;;23.00;98355.00;;;;16600870;28;20215;-49
2022/10/23 15:32:53;;;;;;;4.53;3.80;;;;;23.80;98333.00;;;;16608542;28;149172;-50
2022/10/23 15:41:14;;;;;;;6.93;3.33;;;;;22.60;98323.00;;;;16614116;28;20229;-49
2022/10/23 15:49:18;;;;;;;7.93;5.50;;;;;21.80;98320.00;;;;16616811;28;20211;-49
2022/10/23 15:57:22;;;;;;;5.73;3.20;;;;;21.30;98329.00;;;;16631318;28;20215;-49
2022/10/23 16:05:24;;;;;;;7.47;4.70;;;;;20.60;98313.00;;;;16628599;28;20233;-49
2022/10/23 16:13:28;;;;;;;16.20;8.77;;;;;20.20;98325.00;;;;16610560;28;20221;-48
2022/10/23 16:21:32;;;;;;;12.83;5.30;;;;;21.20;98341.00;;;;16637798;28;20912;-49
2022/10/23 16:29:36;;;;;;;8.37;6.60;;;;;21.90;98335.00;;;;16632223;28;20195;-48
2022/10/23 16:37:38;;;;;;;6.83;4.77;;;;;21.90;98325.00;;;;16623407;28;20713;-49
2022/10/23 16:45:47;;;;;;;7.93;4.90;;;;;21.00;98324.00;;;;16621970;28;20219;-49
2022/10/23 16:53:50;;;;;;;5.87;5.10;;;;;21.80;98319.00;;;;16613518;28;20221;-49
2022/10/23 17:01:54;;;;;;;6.70;5.23;;;;;21.70;98306.00;;;;16622278;28;20871;-48
2022/10/23 17:09:56;;;;;;;12.87;9.10;;;;;21.50;98325.00;;;;16618991;28;20586;-49
2022/10/23 17:18:00;;;;;;;10.23;4.60;;;;;21.00;98355.00;;;;16615132;28;20219;-48
2022/10/23 17:26:03;;;;;;;7.40;3.90;;;;;20.50;98350.00;;;;16602229;28;20725;-47
2022/10/23 17:34:09;;;;;;;5.37;3.63;;;;;19.80;98363.00;;;;16596187;28;20227;-48
2022/10/23 17:42:11;;;;;;;13.43;4.53;;;;;19.50;98417.00;;;;16616677;28;20238;-48
2022/10/23 17:50:15;;;;;;;11.13;4.90;;;;;20.00;98393.00;;;;16624379;28;20226;-49
2022/10/23 17:58:18;;;;;;;9.03;5.30;;;;;20.10;98400.00;;;;16632474;28;20309;-47
2022/10/23 18:06:26;;;;;;;9.50;7.23;;;;;20.10;98379.00;;;;16611281;28;20223;-48
2022/10/23 18:14:28;;;;;;;6.10;5.03;;;;;19.50;98386.00;;;;16603056;28;20215;-48
2022/10/23 18:22:32;;;;;;;12.20;4.80;;;;;19.40;98416.00;;;;16616970;28;20356;-48
2022/10/23 18:30:37;;;;;;;5.93;4.27;;;;;19.40;98455.00;;;;16603956;28;20303;-48
2022/10/23 18:38:41;;;;;;;8.43;4.30;;;;;19.20;98495.00;;;;16613471;28;20210;-49
2022/10/23 18:46:43;;;;;;;15.20;10.23;;;;;20.00;98502.00;;;;16602431;28;20226;-49
2022/10/23 18:54:47;;;;;;;13.33;4.93;;;;;19.60;98486.00;;;;16600657;28;20223;-48
2022/10/23 19:02:49;;;;;;;12.40;5.03;;;;;19.40;98529.00;;;;16610432;28;20702;-48
2022/10/23 19:10:54;;;;;;;9.50;4.57;;;;;20.20;98503.00;;;;16617997;28;20207;-48
2022/10/23 19:18:59;;;;;;;5.90;4.70;;;;;19.80;98509.00;;;;16612854;28;20261;-48
2022/10/23 19:27:03;;;;;;;10.90;4.63;;;;;19.70;98494.00;;;;16621395;28;20595;-48
2022/10/23 19:35:06;;;;;;;10.00;4.03;;;;;19.40;98523.00;;;;16597741;28;20669;-48
2022/10/23 19:43:10;;;;;;;8.73;4.87;;;;;19.20;98507.00;;;;16619873;28;20269;-48
2022/10/23 19:51:13;;;;;;;12.60;8.40;;;;;19.20;98511.00;;;;16623563;28;20225;-48
2022/10/23 19:59:17;;;;;;;6.90;4.50;;;;;20.10;98502.00;;;;16613303;28;20281;-48
2022/10/23 20:07:19;;;;;;;7.13;3.97;;;;;20.70;98485.00;;;;16617044;28;20238;-49
2022/10/23 20:15:23;;;;;;;7.20;4.10;;;;;20.90;98495.00;;;;16607484;28;20225;-49
2022/10/23 20:23:26;;;;;;;9.83;4.27;;;;;21.00;98487.00;;;;16597105;28;20718;-48
2022/10/23 20:31:30;;;;;;;7.53;3.93;;;;;21.00;98484.00;;;;16619577;28;20234;-48
2022/10/23 20:39:35;;;;;;;12.10;4.20;;;;;21.10;98486.00;;;;16614658;28;20227;-48
2022/10/23 20:47:39;;;;;;;7.33;3.00;;;;;21.30;98492.00;;;;16615004;28;20313;-48
2022/10/23 20:55:42;;;;;;;8.30;2.97;;;;;21.60;98491.00;;;;16664281;22;20299;-73
2022/10/23 21:03:50;;;;;;;7.50;2.47;;;;;21.70;98507.00;;;;16638373;28;20225;-72
2022/10/23 21:11:52;;;;;;;9.47;3.07;;;;;21.90;98523.00;;;;16640467;28;20227;-73
2022/10/23 21:19:58;;;;;;;8.07;2.90;;;;;22.30;98508.00;;;;16631850;28;20311;-73
2022/10/23 21:28:00;;;;;;;6.37;2.67;;;;;22.00;98527.00;;;;16638328;28;20309;-73
2022/10/23 21:36:05;;;;;;;7.50;2.03;;;;;22.20;98546.00;;;;16632592;28;20702;-73
2022/10/23 21:44:07;;;;;;;4.00;1.53;;;;;22.20;98551.00;;;;16631241;28;20296;-74
2022/10/23 21:52:11;;;;;;;5.40;1.57;;;;;22.20;98518.00;;;;16631530;28;20361;-74
2022/10/23 22:00:16;;;;;;;8.77;1.70;;;;;22.30;98518.00;;;;16643258;28;20329;-73
2022/10/23 22:08:19;;;;;;;2.20;1.60;;;;;22.20;98505.00;;;;16642212;28;20223;-73
2022/10/23 22:16:22;;;;;;;4.77;1.80;;;;;22.30;98486.00;;;;16648839;28;20206;-73
2022/10/23 22:24:26;;;;;;;3.50;1.47;;;;;22.20;98491.00;;;;16628210;28;20278;-73
2022/10/23 22:32:28;;;;;;;5.47;2.00;;;;;22.20;98490.00;;;;16645877;28;20282;-73
2022/10/23 22:40:33;;;;;;;4.73;1.10;;;;;22.10;98493.00;;;;16626084;28;20816;-73
2022/10/23 22:48:36;;;;;;;8.50;2.17;;;;;22.10;98491.00;;;;16636043;28;20277;-73
2022/10/23 22:56:41;;;;;;;3.60;1.60;;;;;22.00;98488.00;;;;16635572;28;20269;-73
2022/10/23 23:04:43;;;;;;;4.33;1.77;;;;;21.90;98499.00;;;;16638855;28;20317;-71
2022/10/23 23:12:50;;;;;;;3.87;2.23;;;;;21.80;98501.00;;;;16643574;28;20706;-71
2022/10/23 23:20:53;;;;;;;7.63;2.50;;;;;21.80;98511.00;;;;16633123;28;20694;-71
2022/10/23 23:28:57;;;;;;;5.43;1.60;;;;;21.70;98517.00;;;;16628072;28;20760;-71
2022/10/23 23:36:59;;;;;;;4.40;1.67;;;;;21.70;98517.00;;;;16635226;28;20565;-71
2022/10/23 23:45:03;;;;;;;7.30;1.73;;;;;21.70;98513.00;;;;16642728;28;20258;-71
2022/10/23 23:53:06;;;;;;;3.33;1.27;;;;;21.50;98513.00;;;;16627417;28;20254;-71
